createdAt,value
2019-05-23T00:02:16.359Z,12.07
2019-05-23T00:05:16.899Z,7.97
2019-05-23T00:08:11.792Z,9.08
2019-05-23T00:10:56.455Z,9.30
2019-05-23T00:13:51.877Z,8.43
2019-05-23T00:16:24.340Z,7.72
2019-05-23T00:18:56.283Z,7.92
2019-05-23T00:21:28.131Z,6.17
2019-05-23T00:24:00.202Z,7.20
2019-05-23T00:26:31.338Z,8.70
2019-05-23T00:29:10.079Z,8.75
2019-05-23T00:31:58.192Z,7.45
2019-05-23T00:34:33.583Z,8.75
2019-05-23T00:37:07.028Z,8.58
2019-05-23T00:39:40.713Z,9.50
2019-05-23T00:42:12.678Z,6.78
2019-05-23T00:44:43.481Z,7.53
2019-05-23T00:47:14.472Z,6.70
2019-05-23T00:49:47.214Z,8.30
2019-05-23T00:52:17.952Z,7.67
2019-05-23T00:54:51.545Z,6.85
2019-05-23T00:57:24.962Z,7.42
2019-05-23T00:59:56.022Z,8.50
2019-05-23T01:02:28.025Z,5.22
2019-05-23T01:04:58.895Z,6.50
2019-05-23T01:07:30.361Z,7.75
2019-05-23T01:10:04.621Z,6.08
2019-05-23T01:12:37.681Z,9.98
2019-05-23T01:15:09.900Z,7.62
2019-05-23T01:17:40.999Z,7.37
2019-05-23T01:20:15.756Z,5.00
2019-05-23T01:22:48.465Z,5.12
2019-05-23T01:25:21.279Z,7.12
2019-05-23T01:27:53.225Z,7.00
2019-05-23T01:30:30.093Z,8.03
2019-05-23T01:33:01.280Z,5.12
2019-05-23T01:35:32.854Z,6.00
2019-05-23T01:38:09.242Z,6.85
2019-05-23T01:40:41.597Z,7.10
2019-05-23T01:43:14.615Z,8.35
2019-05-23T01:45:46.322Z,6.75
2019-05-23T01:48:19.785Z,8.83
2019-05-23T01:50:52.763Z,6.00
2019-05-23T01:53:26.428Z,7.22
2019-05-23T01:55:57.253Z,6.50
2019-05-23T01:58:29.217Z,4.45
2019-05-23T02:00:59.698Z,8.00
2019-05-23T02:03:31.455Z,5.80
2019-05-23T02:06:02.342Z,8.43
2019-05-23T02:08:33.828Z,7.08
2019-05-23T02:11:04.967Z,6.65
2019-05-23T02:13:36.371Z,7.37
2019-05-23T02:16:08.192Z,6.58
2019-05-23T02:18:39.399Z,5.33
2019-05-23T02:21:12.591Z,6.30
2019-05-23T02:23:44.722Z,6.37
2019-05-23T02:26:17.280Z,5.40
2019-05-23T02:31:18.885Z,6.33
2019-05-23T02:33:49.474Z,5.50
2019-05-23T02:36:22.083Z,5.78
2019-05-23T02:39:07.497Z,5.12
2019-05-23T02:41:42.863Z,5.45
2019-05-23T02:44:22.099Z,18.20
2019-05-23T02:47:05.018Z,6.25
2019-05-23T02:49:37.144Z,4.67
2019-05-23T02:52:27.921Z,5.03
2019-05-23T02:54:59.643Z,5.83
2019-05-23T02:57:31.276Z,6.35
2019-05-23T03:00:53.345Z,5.65
2019-05-23T03:03:19.515Z,7.92
2019-05-23T03:05:52.101Z,9.20
2019-05-23T03:08:24.445Z,6.72
2019-05-23T03:11:09.087Z,6.58
2019-05-23T03:13:41.768Z,8.08
2019-05-23T03:16:18.334Z,8.60
2019-05-23T03:18:53.082Z,7.92
2019-05-23T03:21:25.451Z,6.03
2019-05-23T03:23:57.895Z,6.12
2019-05-23T03:27:02.953Z,4.47
2019-05-23T03:29:35.758Z,5.85
2019-05-23T03:32:38.255Z,7.22
2019-05-23T03:35:10.617Z,6.53
2019-05-23T03:37:42.138Z,5.35
2019-05-23T03:40:12.908Z,6.08
2019-05-23T03:42:43.899Z,5.90
2019-05-23T03:45:17.584Z,8.78
2019-05-23T03:47:49.199Z,7.45
2019-05-23T03:50:21.191Z,5.90
2019-05-23T03:52:52.030Z,5.60
2019-05-23T03:55:24.972Z,6.10
2019-05-23T03:57:57.816Z,7.50
2019-05-23T04:00:33.661Z,7.60
2019-05-23T04:03:06.019Z,5.75
2019-05-23T04:05:37.419Z,7.15
2019-05-23T04:08:09.902Z,5.20
2019-05-23T04:10:41.281Z,5.65
2019-05-23T04:13:14.228Z,4.72
2019-05-23T04:15:45.203Z,7.05
2019-05-23T04:18:16.822Z,7.42
2019-05-23T04:20:49.950Z,7.50
2019-05-23T04:23:20.946Z,7.15
2019-05-23T04:25:51.774Z,7.65
2019-05-23T04:28:22.933Z,5.70
2019-05-23T04:30:54.126Z,7.47
2019-05-23T04:33:24.887Z,8.63
2019-05-23T04:35:57.782Z,4.95
2019-05-23T04:38:28.551Z,6.83
2019-05-23T04:41:00.638Z,9.13
2019-05-23T04:43:31.411Z,12.00
2019-05-23T04:46:02.112Z,7.50
2019-05-23T04:48:33.324Z,6.08
2019-05-23T04:51:07.147Z,5.37
2019-05-23T04:53:37.749Z,5.30
2019-05-23T04:56:11.277Z,4.83
2019-05-23T04:58:41.971Z,6.80
2019-05-23T05:01:13.115Z,6.62
2019-05-23T05:03:45.723Z,6.17
2019-05-23T05:06:17.729Z,6.10
2019-05-23T05:08:53.627Z,4.85
2019-05-23T05:11:24.421Z,6.75
2019-05-23T05:13:55.337Z,5.92
2019-05-23T05:16:26.417Z,7.10
2019-05-23T05:18:58.401Z,6.20
2019-05-23T05:21:30.269Z,4.78
2019-05-23T05:24:01.644Z,6.20
2019-05-23T05:26:33.723Z,5.97
2019-05-23T05:29:05.271Z,6.05
2019-05-23T05:31:37.189Z,6.70
2019-05-23T05:34:08.319Z,6.65
2019-05-23T05:36:40.687Z,4.90
2019-05-23T05:39:14.827Z,5.55
2019-05-23T05:41:45.526Z,6.47
2019-05-23T05:44:16.558Z,5.20
2019-05-23T05:46:48.700Z,5.58
2019-05-23T05:49:19.741Z,5.55
2019-05-23T05:51:50.653Z,4.70
2019-05-23T05:54:22.752Z,6.03
2019-05-23T05:56:53.456Z,5.28
2019-05-23T05:59:27.102Z,5.45
2019-05-23T06:02:01.756Z,4.65
2019-05-23T06:04:32.362Z,5.22
2019-05-23T06:07:16.115Z,5.97
2019-05-23T06:09:47.538Z,7.10
2019-05-23T06:12:19.749Z,9.18
2019-05-23T06:14:51.938Z,5.40
2019-05-23T06:17:23.670Z,5.95
2019-05-23T06:19:56.809Z,5.45
2019-05-23T06:22:28.298Z,3.83
2019-05-23T06:24:59.374Z,3.65
2019-05-23T06:27:30.330Z,6.60
2019-05-23T06:30:04.090Z,5.08
2019-05-23T06:32:35.871Z,7.12
2019-05-23T06:35:07.528Z,2.85
2019-05-23T06:37:38.660Z,4.47
2019-05-23T06:42:39.781Z,4.87
2019-05-23T06:45:14.143Z,4.83
2019-05-23T06:47:44.791Z,5.83
2019-05-23T06:50:19.459Z,5.80
2019-05-23T06:52:50.391Z,6.47
2019-05-23T06:55:23.968Z,9.00
2019-05-23T06:57:55.040Z,4.65
2019-05-23T07:00:28.763Z,5.55
2019-05-23T07:03:00.903Z,3.75
2019-05-23T07:05:35.637Z,3.65
2019-05-23T07:08:07.955Z,3.72
2019-05-23T07:13:08.752Z,4.55
2019-05-23T07:15:43.169Z,4.95
2019-05-23T07:18:13.884Z,5.72
2019-05-23T07:20:46.322Z,4.15
2019-05-23T07:23:18.747Z,5.95
2019-05-23T07:25:50.394Z,5.97
2019-05-23T07:28:21.152Z,5.62
2019-05-23T07:30:52.424Z,5.50
2019-05-23T07:35:53.926Z,4.92
2019-05-23T07:38:24.667Z,3.45
2019-05-23T07:40:55.701Z,3.95
2019-05-23T07:43:26.692Z,5.42
2019-05-23T07:45:58.918Z,7.10
2019-05-23T07:48:30.854Z,5.78
2019-05-23T07:51:05.303Z,4.67
2019-05-23T07:53:55.307Z,5.70
2019-05-23T07:56:29.234Z,4.10
2019-05-23T07:58:59.982Z,6.95
2019-05-23T08:01:34.988Z,4.60
2019-05-23T08:04:20.698Z,4.33
2019-05-23T08:06:39.369Z,5.58
2019-05-23T08:09:11.610Z,4.70
2019-05-23T08:11:42.399Z,9.25
2019-05-23T08:14:13.191Z,6.65
2019-05-23T08:16:45.801Z,5.45
2019-05-23T08:19:19.712Z,5.47
2019-05-23T08:21:48.921Z,8.05
2019-05-23T08:24:20.380Z,7.28
2019-05-23T08:26:51.167Z,6.37
2019-05-23T08:29:25.936Z,6.83
2019-05-23T08:31:54.347Z,5.72
2019-05-23T08:34:40.835Z,5.60
2019-05-23T08:36:58.121Z,3.02
2019-05-23T08:39:28.819Z,6.50
2019-05-23T08:41:59.865Z,3.90
2019-05-23T08:44:30.740Z,3.27
2019-05-23T08:47:01.737Z,5.28
2019-05-23T08:49:32.493Z,5.97
2019-05-23T08:52:03.458Z,7.25
2019-05-23T08:54:34.238Z,5.60
2019-05-23T08:57:06.906Z,3.80
2019-05-23T08:59:37.639Z,6.62
2019-05-23T09:02:11.551Z,3.25
2019-05-23T09:05:02.576Z,6.00
2019-05-23T09:07:17.044Z,3.77
2019-05-23T09:09:48.843Z,2.87
2019-05-23T09:12:20.621Z,5.62
2019-05-23T09:14:51.534Z,5.62
2019-05-23T09:17:23.259Z,4.42
2019-05-23T09:19:53.868Z,5.17
2019-05-23T09:22:25.956Z,6.17
2019-05-23T09:24:57.528Z,1.90
2019-05-23T09:27:29.200Z,4.40
2019-05-23T09:30:01.453Z,2.72
2019-05-23T09:32:32.225Z,2.00
2019-05-23T09:35:19.604Z,1.65
2019-05-23T09:37:38.643Z,2.42
2019-05-23T09:40:09.436Z,2.17
2019-05-23T09:45:14.264Z,3.10
2019-05-23T09:47:45.171Z,1.70
2019-05-23T09:50:18.439Z,2.92
2019-05-23T09:52:49.057Z,1.90
2019-05-23T09:55:20.890Z,2.62
2019-05-23T09:57:51.447Z,3.08
2019-05-23T10:00:23.978Z,3.15
2019-05-23T10:02:54.841Z,3.00
2019-05-23T10:05:41.691Z,2.35
2019-05-23T10:07:57.871Z,3.67
2019-05-23T10:10:28.809Z,1.42
2019-05-23T10:13:02.289Z,5.90
2019-05-23T10:15:55.035Z,5.72
2019-05-23T10:18:26.141Z,4.67
2019-05-23T10:21:09.891Z,4.97
2019-05-23T10:23:40.166Z,5.20
2019-05-23T10:26:11.114Z,4.92
2019-05-23T10:28:41.805Z,6.30
2019-05-23T10:31:14.090Z,3.45
2019-05-23T10:33:44.886Z,5.92
2019-05-23T10:36:15.767Z,4.50
2019-05-23T10:38:46.624Z,4.75
2019-05-23T10:41:17.238Z,5.12
2019-05-23T10:43:47.947Z,6.12
2019-05-23T10:46:18.955Z,9.18
2019-05-23T10:48:49.923Z,4.20
2019-05-23T10:53:50.111Z,5.47
2019-05-23T10:56:21.655Z,5.53
2019-05-23T10:58:52.305Z,7.00
2019-05-23T11:01:23.196Z,3.52
2019-05-23T11:03:54.041Z,6.97
2019-05-23T11:06:25.124Z,5.78
2019-05-23T11:08:56.461Z,3.87
2019-05-23T11:11:27.985Z,7.35
2019-05-23T11:13:59.116Z,4.65
2019-05-23T11:18:59.951Z,5.28
2019-05-23T11:24:00.052Z,4.58
2019-05-23T11:26:30.772Z,4.83
2019-05-23T11:29:03.080Z,5.40
2019-05-23T11:31:34.010Z,10.65
2019-05-23T11:34:04.953Z,4.33
2019-05-23T11:36:37.080Z,4.05
2019-05-23T11:39:09.106Z,5.40
2019-05-23T11:41:39.995Z,3.92
2019-05-23T11:46:41.409Z,5.12
2019-05-23T11:51:41.689Z,4.75
2019-05-23T11:54:12.430Z,6.72
2019-05-23T11:56:46.266Z,5.72
2019-05-23T11:59:25.601Z,5.45
2019-05-23T12:02:18.734Z,4.37
2019-05-23T12:04:49.671Z,7.62
2019-05-23T12:07:31.281Z,7.75
2019-05-23T12:10:08.041Z,7.97
2019-05-23T12:12:38.758Z,7.33
2019-05-23T12:15:13.303Z,8.35
2019-05-23T12:17:44.119Z,6.22
2019-05-23T12:20:18.613Z,5.87
2019-05-23T12:22:51.048Z,5.35
2019-05-23T12:25:23.524Z,5.72
2019-05-23T12:27:57.494Z,5.85
2019-05-23T12:30:28.774Z,6.58
2019-05-23T12:32:59.436Z,5.15
2019-05-23T12:35:31.743Z,6.60
2019-05-23T12:38:02.839Z,5.75
2019-05-23T12:43:03.246Z,3.92
2019-05-23T12:45:33.860Z,2.40
2019-05-23T12:48:10.089Z,2.65
2019-05-23T12:50:43.478Z,3.30
2019-05-23T12:53:15.410Z,2.90
2019-05-23T12:55:48.826Z,2.42
2019-05-23T12:58:19.977Z,4.10
2019-05-23T13:03:24.041Z,4.50
2019-05-23T13:05:55.152Z,4.25
2019-05-23T13:08:25.977Z,4.05
2019-05-23T13:10:56.623Z,4.72
2019-05-23T13:13:27.928Z,4.55
2019-05-23T13:15:58.711Z,5.37
2019-05-23T13:18:29.396Z,3.55
2019-05-23T13:21:00.066Z,8.65
2019-05-23T13:23:31.071Z,4.33
2019-05-23T13:26:01.920Z,4.72
2019-05-23T13:28:32.525Z,3.05
2019-05-23T13:31:03.315Z,4.20
2019-05-23T13:33:34.002Z,3.55
2019-05-23T13:36:05.175Z,5.17
2019-05-23T13:38:36.022Z,4.47
2019-05-23T13:41:06.666Z,4.72
2019-05-23T13:43:39.680Z,3.98
2019-05-23T13:46:10.840Z,2.35
2019-05-23T13:48:41.508Z,4.05
2019-05-23T13:51:14.221Z,3.33
2019-05-23T13:53:44.813Z,4.67
2019-05-23T13:56:15.746Z,3.30
2019-05-23T14:01:16.863Z,2.27
2019-05-23T14:03:47.952Z,4.08
2019-05-23T14:06:19.075Z,3.22
2019-05-23T14:08:50.089Z,2.30
2019-05-23T14:11:20.912Z,5.25
2019-05-23T14:13:59.787Z,3.00
2019-05-23T14:16:24.098Z,4.08
2019-05-23T14:21:24.466Z,2.65
2019-05-23T14:23:55.282Z,3.33
2019-05-23T14:26:27.564Z,2.47
2019-05-23T14:28:58.358Z,3.35
2019-05-23T14:34:07.315Z,4.60
2019-05-23T14:37:02.898Z,2.30
2019-05-23T14:39:49.687Z,2.83
2019-05-23T14:42:45.476Z,6.22
2019-05-23T14:45:34.518Z,3.02
2019-05-23T14:48:36.256Z,4.78
2019-05-23T14:51:32.071Z,2.75
2019-05-23T14:54:38.051Z,3.37
2019-05-23T14:57:11.243Z,2.77
2019-05-23T14:59:42.476Z,3.60
2019-05-23T15:02:19.129Z,4.22
2019-05-23T15:04:50.228Z,2.90
2019-05-23T15:07:21.319Z,2.08
2019-05-23T15:09:53.319Z,3.65
2019-05-23T15:12:24.123Z,3.52
2019-05-23T15:17:29.384Z,4.10
2019-05-23T15:20:01.404Z,4.55
2019-05-23T15:22:33.771Z,4.45
2019-05-23T15:25:04.934Z,3.30
2019-05-23T15:27:35.700Z,3.83
2019-05-23T15:30:09.192Z,2.35
2019-05-23T15:32:39.763Z,2.90
2019-05-23T15:35:10.545Z,3.40
2019-05-23T15:37:41.510Z,4.58
2019-05-23T15:42:42.240Z,3.50
2019-05-23T15:47:44.935Z,4.47
2019-05-23T15:53:02.211Z,4.00
2019-05-23T15:55:44.199Z,2.60
2019-05-23T15:58:32.108Z,3.60
2019-05-23T16:01:18.150Z,2.90
2019-05-23T16:03:54.036Z,1.95
2019-05-23T16:06:27.166Z,1.80
2019-05-23T16:08:57.849Z,5.35
2019-05-23T16:11:28.757Z,2.55
2019-05-23T16:13:59.728Z,2.15
2019-05-23T16:16:32.835Z,4.00
2019-05-23T16:19:04.375Z,3.00
2019-05-23T16:21:35.903Z,4.40
2019-05-23T16:24:07.702Z,2.62
2019-05-23T16:26:39.638Z,2.05
2019-05-23T16:29:12.849Z,4.95
2019-05-23T16:31:43.768Z,5.17
2019-05-23T16:34:14.582Z,2.52
2019-05-23T16:36:46.282Z,5.70
2019-05-23T16:39:19.507Z,5.50
2019-05-23T16:41:52.451Z,3.42
2019-05-23T16:44:24.277Z,2.02
2019-05-23T16:46:56.875Z,1.50
2019-05-23T16:49:29.966Z,3.55
2019-05-23T16:52:00.696Z,1.70
2019-05-23T16:54:37.786Z,2.27
2019-05-23T16:57:17.580Z,7.60
2019-05-23T17:00:09.818Z,1.85
2019-05-23T17:02:57.812Z,2.98
2019-05-23T17:06:17.794Z,4.65
2019-05-23T17:09:05.592Z,2.00
2019-05-23T17:12:13.337Z,1.60
2019-05-23T17:14:53.100Z,1.32
2019-05-23T17:18:01.397Z,2.30
2019-05-23T17:20:38.418Z,5.05
2019-05-23T17:23:46.293Z,1.65
2019-05-23T17:26:26.084Z,3.17
2019-05-23T17:28:56.969Z,1.32
2019-05-23T17:31:33.046Z,3.25
2019-05-23T17:34:03.793Z,5.92
2019-05-23T17:36:34.777Z,2.10
2019-05-23T17:39:08.583Z,1.62
2019-05-23T17:41:39.553Z,2.70
2019-05-23T17:44:10.269Z,2.52
2019-05-23T17:46:41.101Z,2.05
2019-05-23T17:49:11.738Z,4.45
2019-05-23T17:51:42.461Z,1.52
2019-05-23T17:54:14.415Z,1.72
2019-05-23T17:56:45.063Z,2.22
2019-05-23T17:59:15.622Z,2.47
2019-05-23T18:01:46.349Z,3.35
2019-05-23T18:04:17.288Z,5.30
2019-05-23T18:06:48.670Z,1.90
2019-05-23T18:09:20.108Z,4.30
2019-05-23T18:11:51.698Z,1.85
2019-05-23T18:14:22.816Z,3.17
2019-05-23T18:16:54.707Z,3.65
2019-05-23T18:19:26.556Z,2.72
2019-05-23T18:21:58.893Z,1.62
2019-05-23T18:24:30.269Z,1.95
2019-05-23T18:27:02.443Z,2.35
2019-05-23T18:29:34.267Z,2.22
2019-05-23T18:32:09.262Z,2.35
2019-05-23T18:34:41.189Z,2.12
2019-05-23T18:37:11.750Z,1.47
2019-05-23T18:39:44.041Z,0.80
2019-05-23T18:42:15.749Z,1.87
2019-05-23T18:44:47.512Z,2.42
2019-05-23T18:47:30.552Z,3.27
2019-05-23T18:50:01.799Z,2.05
2019-05-23T18:52:34.059Z,4.45
2019-05-23T18:55:05.984Z,3.27
2019-05-23T18:57:41.951Z,5.35
2019-05-23T19:00:13.910Z,1.95
2019-05-23T19:02:44.651Z,2.58
2019-05-23T19:05:16.267Z,2.20
2019-05-23T19:07:48.280Z,4.22
2019-05-23T19:10:19.443Z,3.05
2019-05-23T19:15:20.499Z,2.70
2019-05-23T19:17:51.100Z,1.40
2019-05-23T19:20:21.742Z,2.75
2019-05-23T19:22:52.957Z,2.05
2019-05-23T19:25:24.061Z,2.20
2019-05-23T19:27:56.254Z,3.42
2019-05-23T19:32:57.618Z,1.53
2019-05-23T19:35:28.342Z,3.85
2019-05-23T19:38:01.741Z,1.82
2019-05-23T19:40:32.909Z,3.98
2019-05-23T19:45:33.623Z,2.42
2019-05-23T19:48:07.943Z,4.00
2019-05-23T19:50:38.721Z,5.58
2019-05-23T19:53:10.516Z,4.42
2019-05-23T19:55:41.136Z,5.33
2019-05-23T19:58:11.661Z,5.58
2019-05-23T20:00:43.826Z,5.25
2019-05-23T20:03:14.953Z,3.77
2019-05-23T20:05:47.264Z,5.15
2019-05-23T20:08:18.098Z,6.35
2019-05-23T20:10:48.907Z,4.37
2019-05-23T20:13:19.630Z,4.87
2019-05-23T20:15:50.350Z,6.10
2019-05-23T20:18:21.688Z,4.25
2019-05-23T20:20:52.514Z,6.28
2019-05-23T20:23:25.548Z,3.92
2019-05-23T20:25:56.198Z,8.15
2019-05-23T20:28:27.248Z,6.30
2019-05-23T20:30:59.701Z,6.10
2019-05-23T20:33:30.767Z,6.90
2019-05-23T20:36:03.486Z,4.50
2019-05-23T20:38:34.531Z,4.35
2019-05-23T20:41:05.903Z,7.28
2019-05-23T20:43:36.811Z,6.60
2019-05-23T20:46:07.496Z,7.83
2019-05-23T20:48:38.330Z,6.03
2019-05-23T20:51:09.394Z,6.12
2019-05-23T20:53:40.988Z,5.95
2019-05-23T20:56:12.570Z,5.80
2019-05-23T20:58:44.850Z,6.72
2019-05-23T21:01:19.004Z,10.65
2019-05-23T21:03:50.519Z,6.75
2019-05-23T21:06:21.136Z,8.30
2019-05-23T21:08:51.794Z,7.83
2019-05-23T21:11:22.552Z,12.00
2019-05-23T21:13:55.209Z,11.08
2019-05-23T21:16:25.807Z,6.25
2019-05-23T21:18:56.321Z,8.65
2019-05-23T21:21:28.504Z,10.43
2019-05-23T21:24:00.651Z,9.40
2019-05-23T21:26:31.454Z,6.95
2019-05-23T21:29:02.065Z,8.60
2019-05-23T21:31:41.619Z,7.15
2019-05-23T21:34:14.011Z,6.72
2019-05-23T21:36:45.448Z,6.90
2019-05-23T21:39:17.906Z,7.87
2019-05-23T21:41:50.320Z,10.85
2019-05-23T21:44:22.585Z,7.28
2019-05-23T21:46:53.768Z,6.10
2019-05-23T21:49:24.501Z,9.58
2019-05-23T21:51:55.171Z,11.38
2019-05-23T21:54:25.733Z,9.23
2019-05-23T21:56:56.882Z,9.08
2019-05-23T21:59:27.947Z,10.82
2019-05-23T22:02:13.845Z,10.78
2019-05-23T22:04:49.754Z,8.93
2019-05-23T22:07:20.665Z,7.40
2019-05-23T22:09:51.669Z,9.73
2019-05-23T22:12:23.637Z,7.45
2019-05-23T22:14:56.844Z,8.60
2019-05-23T22:17:27.781Z,7.47
2019-05-23T22:19:58.500Z,8.33
2019-05-23T22:22:29.423Z,7.95
2019-05-23T22:25:01.833Z,12.03
2019-05-23T22:30:02.324Z,10.75
2019-05-23T22:32:33.856Z,9.88
2019-05-23T22:35:14.131Z,10.28
2019-05-23T22:37:44.925Z,10.72
2019-05-23T22:40:16.915Z,8.58
2019-05-23T22:42:47.651Z,8.03
2019-05-23T22:45:20.641Z,9.90
2019-05-23T22:47:51.588Z,6.90
2019-05-23T22:50:24.357Z,11.57
2019-05-23T22:52:55.013Z,10.38
2019-05-23T22:55:26.074Z,9.80
2019-05-23T22:57:56.879Z,9.15
2019-05-23T23:00:33.431Z,9.73
2019-05-23T23:03:05.529Z,10.80
2019-05-23T23:05:36.576Z,14.18
2019-05-23T23:08:07.701Z,13.28
2019-05-23T23:10:39.797Z,12.05
2019-05-23T23:13:11.658Z,12.43
2019-05-23T23:15:42.713Z,10.65
2019-05-23T23:18:13.422Z,13.35
2019-05-23T23:20:45.786Z,14.45
2019-05-23T23:23:16.302Z,11.20
2019-05-23T23:25:46.890Z,10.95
2019-05-23T23:28:18.176Z,14.53
2019-05-23T23:30:50.382Z,14.28
2019-05-23T23:33:21.161Z,13.48
2019-05-23T23:35:51.718Z,17.62
2019-05-23T23:38:22.481Z,16.93
2019-05-23T23:40:53.232Z,17.90
2019-05-23T23:43:24.856Z,14.60
2019-05-23T23:46:12.932Z,17.60
2019-05-23T23:49:00.850Z,18.52
2019-05-23T23:51:51.325Z,16.50
2019-05-23T23:54:39.511Z,17.37
2019-05-23T23:57:27.855Z,16.82
